Hovedside
METAR-TAF:

METAR-TAF

Lufthavner :

Bromma lufthavn

Stockholm, Sverige

breddegrad: 59-21N, lengdegrad: 017-57E, høyde over havet: 14 m

Gjeldene værobservasjon

Denne rapporten ble laget for 39 minutter siden, klokken 16:50 UTC
Vind 6 kt fra Sør
Temperatur 24°C
Luftfuktighet 36%
Trykk 1026 hPa
Sikt 10 km eller mer

METAR: ESSB 261650Z AUTO 17006KT 9999 NCD 24/08 Q1026

Tid: 19:29 (17:29 UTC)


TAF: fraværende

Værobservasjoner og værvarsel for over 4000 flyplasser (METAR- og TAF-rapporter).

Tilgjengelige stasjoner er representert av de røde og gule prikkene på kartet.

Hold musepekeren over prikken for å se navnet på stasjonen.

Klikk så for å se værobservasjoner og -varsler.

For å forandre kartet kan du klikke på den grønne knappen med svart kryss for å zoome inn, på den grønne knappen med strek for å zoome ut, eller på de grønne pilene for å se tilstøtende kart.


METAR-TAF: